createdAt,value
2018-08-19T00:00:28.763Z,94445.48
2018-08-19T00:02:59.487Z,94443.31
2018-08-19T00:05:27.091Z,94439.51
2018-08-19T00:07:54.695Z,94443.66
2018-08-19T00:10:45.421Z,94435.87
2018-08-19T00:13:12.984Z,94438.11
2018-08-19T00:15:40.942Z,94433.02
2018-08-19T00:18:10.134Z,94432.03
2018-08-19T00:20:37.759Z,94434.18
2018-08-19T00:23:05.666Z,94440.45
2018-08-19T00:25:35.995Z,94442.17
2018-08-19T00:28:04.187Z,94443.95
2018-08-19T00:30:31.998Z,94444.95
2018-08-19T00:33:00.789Z,94444.54
2018-08-19T00:35:29.714Z,94438.44
2018-08-19T00:37:57.650Z,94437.23
2018-08-19T00:40:25.175Z,94438.53
2018-08-19T00:42:52.790Z,94436.19
2018-08-19T00:45:20.372Z,94441.61
2018-08-19T00:47:49.302Z,94442.67
2018-08-19T00:50:17.567Z,94434.28
2018-08-19T00:52:45.119Z,94437.46
2018-08-19T00:55:12.735Z,94439.20
2018-08-19T00:57:43.293Z,94439.80
2018-08-19T01:00:10.823Z,94438.76
2018-08-19T01:02:38.399Z,94439.90
2018-08-19T01:05:06.019Z,94442.42
2018-08-19T01:07:34.897Z,94441.15
2018-08-19T01:10:02.753Z,94448.73
2018-08-19T01:12:30.319Z,94444.19
2018-08-19T01:14:57.891Z,94441.97
2018-08-19T01:17:31.904Z,94443.59
2018-08-19T01:20:02.743Z,94441.16
2018-08-19T01:22:32.082Z,94442.16
2018-08-19T01:24:59.638Z,94439.20
2018-08-19T01:27:27.228Z,94442.91
2018-08-19T01:29:54.768Z,94445.81
2018-08-19T01:32:22.333Z,94441.97
2018-08-19T01:34:49.866Z,94443.05
2018-08-19T01:37:18.082Z,94439.50
2018-08-19T01:39:45.711Z,94445.22
2018-08-19T01:42:13.277Z,94439.28
2018-08-19T01:44:42.835Z,94442.45
2018-08-19T01:47:10.350Z,94436.20
2018-08-19T01:49:37.914Z,94435.39
2018-08-19T01:52:05.513Z,94441.12
2018-08-19T01:54:33.034Z,94445.22
2018-08-19T01:57:01.519Z,94436.66
2018-08-19T01:59:30.649Z,94438.46
2018-08-19T02:01:59.579Z,94437.58
2018-08-19T02:04:27.177Z,94436.32
2018-08-19T02:06:54.749Z,94434.78
2018-08-19T02:09:22.478Z,94441.14
2018-08-19T02:11:53.374Z,94440.58
2018-08-19T02:14:21.655Z,94440.29
2018-08-19T02:16:49.895Z,94436.30
2018-08-19T02:19:17.456Z,94434.45
2018-08-19T02:21:45.739Z,94435.60
2018-08-19T02:24:13.715Z,94441.52
2018-08-19T02:26:41.301Z,94438.74
2018-08-19T02:29:20.223Z,94429.36
2018-08-19T02:31:47.753Z,94438.78
2018-08-19T02:34:18.247Z,94426.52
2018-08-19T02:36:45.824Z,94433.05
2018-08-19T02:39:13.359Z,94431.56
2018-08-19T02:41:45.247Z,94423.11
2018-08-19T02:44:13.918Z,94426.36
2018-08-19T02:46:41.464Z,94421.97
2018-08-19T02:49:09.002Z,94415.50
2018-08-19T02:51:36.556Z,94423.93
2018-08-19T02:54:04.127Z,94419.53
2018-08-19T02:56:32.226Z,94422.41
2018-08-19T02:58:59.754Z,94423.28
2018-08-19T03:01:27.290Z,94424.95
2018-08-19T03:03:55.161Z,94429.11
2018-08-19T03:06:22.706Z,94430.14
2018-08-19T03:08:55.592Z,94422.05
2018-08-19T03:11:23.130Z,94416.73
2018-08-19T03:13:50.646Z,94422.96
2018-08-19T03:16:18.192Z,94416.48
2018-08-19T03:18:46.503Z,94416.93
2018-08-19T03:21:14.023Z,94412.38
2018-08-19T03:23:41.563Z,94413.95
2018-08-19T03:26:09.086Z,94416.23
2018-08-19T03:28:37.658Z,94410.33
2018-08-19T03:31:05.294Z,94407.72
2018-08-19T03:33:32.819Z,94406.22
2018-08-19T03:36:00.365Z,94415.09
2018-08-19T03:38:27.930Z,94406.55
2018-08-19T03:40:56.423Z,94415.56
2018-08-19T03:43:24.199Z,94420.27
2018-08-19T03:45:51.774Z,94422.80
2018-08-19T03:48:19.293Z,94419.75
2018-08-19T03:50:46.826Z,94418.26
2018-08-19T03:53:14.353Z,94423.70
2018-08-19T03:55:41.952Z,94426.52
2018-08-19T03:58:10.341Z,94428.45
2018-08-19T04:00:40.489Z,94424.33
2018-08-19T04:03:20.539Z,94430.32
2018-08-19T04:05:50.737Z,94425.50
2018-08-19T04:08:18.284Z,94434.22
2018-08-19T04:10:46.634Z,94430.67
2018-08-19T04:13:24.907Z,94431.56
2018-08-19T04:15:53.613Z,94432.33
2018-08-19T04:18:25.998Z,94427.33
2018-08-19T04:20:53.594Z,94431.90
2018-08-19T04:23:21.179Z,94424.88
2018-08-19T04:25:49.293Z,94430.43
2018-08-19T04:28:21.297Z,94426.75
2018-08-19T04:30:49.860Z,94432.20
2018-08-19T04:33:18.663Z,94435.51
2018-08-19T04:35:46.185Z,94432.47
2018-08-19T04:38:13.733Z,94427.30
2018-08-19T04:40:41.290Z,94427.16
2018-08-19T04:43:08.810Z,94432.61
2018-08-19T04:45:36.351Z,94433.49
2018-08-19T04:48:03.934Z,94431.71
2018-08-19T04:50:32.673Z,94441.30
2018-08-19T04:53:00.350Z,94437.31
2018-08-19T04:55:28.082Z,94441.62
2018-08-19T04:57:55.637Z,94437.33
2018-08-19T05:00:23.229Z,94438.85
2018-08-19T05:02:50.746Z,94442.19
2018-08-19T05:05:18.299Z,94439.09
2018-08-19T05:07:45.846Z,94437.47
2018-08-19T05:10:13.381Z,94436.12
2018-08-19T05:12:41.682Z,94441.86
2018-08-19T05:15:09.186Z,94446.70
2018-08-19T05:17:37.130Z,94443.48
2018-08-19T05:20:10.710Z,94443.98
2018-08-19T05:22:38.334Z,94438.31
2018-08-19T05:25:05.820Z,94439.38
2018-08-19T05:27:33.352Z,94444.98
2018-08-19T05:30:00.899Z,94443.44
2018-08-19T05:32:28.410Z,94436.09
2018-08-19T05:34:55.950Z,94444.84
2018-08-19T05:37:23.471Z,94435.95
2018-08-19T05:39:56.559Z,94444.20
2018-08-19T05:42:24.970Z,94447.42
2018-08-19T05:44:52.650Z,94445.55
2018-08-19T05:47:20.182Z,94450.63
2018-08-19T05:49:49.298Z,94443.23
2018-08-19T05:52:22.325Z,94446.33
2018-08-19T05:54:53.418Z,94445.31
2018-08-19T05:57:21.904Z,94447.80
2018-08-19T05:59:51.350Z,94447.63
2018-08-19T06:02:28.989Z,94450.16
2018-08-19T06:04:56.588Z,94452.75
2018-08-19T06:07:24.127Z,94451.22
2018-08-19T06:09:51.670Z,94452.36
2018-08-19T06:12:19.226Z,94458.22
2018-08-19T06:14:47.130Z,94459.02
2018-08-19T06:17:14.682Z,94458.28
2018-08-19T06:19:42.239Z,94460.98
2018-08-19T06:22:10.107Z,94458.95
2018-08-19T06:24:38.565Z,94461.92
2018-08-19T06:27:06.109Z,94462.51
2018-08-19T06:29:44.565Z,94466.09
2018-08-19T06:32:15.942Z,94461.77
2018-08-19T06:34:43.519Z,94462.52
2018-08-19T06:37:11.234Z,94467.17
2018-08-19T06:39:38.742Z,94466.34
2018-08-19T06:42:06.646Z,94463.73
2018-08-19T06:44:34.190Z,94461.83
2018-08-19T06:47:01.849Z,94463.45
2018-08-19T06:49:30.223Z,94453.84
2018-08-19T06:51:57.784Z,94458.50
2018-08-19T06:54:25.339Z,94455.61
2018-08-19T06:56:54.504Z,94455.16
2018-08-19T06:59:22.951Z,94453.72
2018-08-19T07:01:50.511Z,94464.08
2018-08-19T07:04:18.088Z,94460.95
2018-08-19T07:06:45.630Z,94460.43
2018-08-19T07:09:13.501Z,94463.34
2018-08-19T07:11:47.543Z,94461.70
2018-08-19T07:14:15.107Z,94469.31
2018-08-19T07:16:42.667Z,94463.45
2018-08-19T07:19:10.801Z,94471.06
2018-08-19T07:21:38.395Z,94469.19
2018-08-19T07:24:06.032Z,94461.41
2018-08-19T07:26:33.655Z,94454.96
2018-08-19T07:29:01.222Z,94461.49
2018-08-19T07:31:28.976Z,94459.28
2018-08-19T07:33:56.542Z,94462.02
2018-08-19T07:36:24.126Z,94456.46
2018-08-19T07:38:51.705Z,94460.05
2018-08-19T07:41:19.269Z,94465.67
2018-08-19T07:43:46.917Z,94466.73
2018-08-19T07:46:14.394Z,94464.53
2018-08-19T07:48:42.590Z,94462.20
2018-08-19T07:51:10.137Z,94465.84
2018-08-19T07:53:37.710Z,94464.27
2018-08-19T07:56:05.236Z,94467.58
2018-08-19T07:58:38.987Z,94457.44
2018-08-19T08:01:06.551Z,94458.40
2018-08-19T08:03:34.102Z,94457.50
2018-08-19T08:06:01.653Z,94447.88
2018-08-19T08:08:29.205Z,94458.98
2018-08-19T08:10:56.853Z,94455.33
2018-08-19T08:13:24.330Z,94455.09
2018-08-19T08:15:54.265Z,94454.65
2018-08-19T08:18:21.831Z,94459.83
2018-08-19T08:20:50.529Z,94454.56
2018-08-19T08:23:18.979Z,94458.75
2018-08-19T08:25:46.693Z,94452.75
2018-08-19T08:28:14.286Z,94453.48
2018-08-19T08:30:41.820Z,94448.92
2018-08-19T08:33:09.642Z,94452.98
2018-08-19T08:35:41.690Z,94446.50
2018-08-19T08:38:11.153Z,94448.61
2018-08-19T08:40:39.136Z,94449.68
2018-08-19T08:43:07.482Z,94449.02
2018-08-19T08:45:39.030Z,94439.20
2018-08-19T08:48:07.081Z,94441.02
2018-08-19T08:50:34.667Z,94446.05
2018-08-19T08:53:02.264Z,94437.34
2018-08-19T08:55:30.064Z,94434.88
2018-08-19T08:57:57.631Z,94437.28
2018-08-19T09:00:25.212Z,94432.72
2018-08-19T09:02:52.840Z,94430.36
2018-08-19T09:05:20.427Z,94429.27
2018-08-19T09:07:47.999Z,94427.58
2018-08-19T09:10:15.579Z,94418.95
2018-08-19T09:12:45.204Z,94425.00
2018-08-19T09:15:12.822Z,94420.13
2018-08-19T09:17:40.415Z,94432.44
2018-08-19T09:20:09.618Z,94432.48
2018-08-19T09:22:37.226Z,94417.95
2018-08-19T09:25:05.674Z,94424.90
2018-08-19T09:27:33.654Z,94419.84
2018-08-19T09:30:01.223Z,94416.39
2018-08-19T09:32:28.757Z,94413.71
2018-08-19T09:34:56.351Z,94424.27
2018-08-19T09:37:23.915Z,94425.12
2018-08-19T09:39:51.500Z,94413.72
2018-08-19T09:42:21.318Z,94408.09
2018-08-19T09:44:48.919Z,94414.47
2018-08-19T09:47:16.521Z,94411.52
2018-08-19T09:49:45.062Z,94410.81
2018-08-19T09:52:12.673Z,94413.09
2018-08-19T09:54:40.302Z,94418.12
2018-08-19T09:57:08.186Z,94407.30
2018-08-19T09:59:36.107Z,94406.73
2018-08-19T10:02:05.970Z,94404.38
2018-08-19T10:04:33.818Z,94400.11
2018-08-19T10:07:11.434Z,94396.81
2018-08-19T10:09:39.154Z,94396.70
2018-08-19T10:12:06.939Z,94399.09
2018-08-19T10:14:34.613Z,94393.84
2018-08-19T10:17:02.206Z,94395.94
2018-08-19T10:19:29.755Z,94395.56
2018-08-19T10:21:57.372Z,94394.21
2018-08-19T10:24:27.570Z,94389.41
2018-08-19T10:26:55.784Z,94391.84
2018-08-19T10:29:23.438Z,94396.39
2018-08-19T10:31:51.601Z,94397.19
2018-08-19T10:34:23.882Z,94398.41
2018-08-19T10:36:51.410Z,94390.87
2018-08-19T10:39:18.989Z,94390.70
2018-08-19T10:41:46.836Z,94395.56
2018-08-19T10:44:14.402Z,94385.73
2018-08-19T10:46:42.556Z,94382.20
2018-08-19T10:49:10.650Z,94382.25
2018-08-19T10:51:40.223Z,94378.68
2018-08-19T10:54:07.834Z,94383.66
2018-08-19T10:56:35.390Z,94379.45
2018-08-19T10:59:03.047Z,94376.11
2018-08-19T11:01:30.687Z,94368.08
2018-08-19T11:03:58.626Z,94372.73
2018-08-19T11:06:26.175Z,94375.13
2018-08-19T11:08:54.905Z,94365.09
2018-08-19T11:11:22.778Z,94370.05
2018-08-19T11:13:50.356Z,94368.61
2018-08-19T11:16:17.922Z,94367.29
2018-08-19T11:18:46.684Z,94362.66
2018-08-19T11:21:23.226Z,94357.06
2018-08-19T11:23:50.851Z,94362.20
2018-08-19T11:26:18.445Z,94357.03
2018-08-19T11:28:50.436Z,94354.90
2018-08-19T11:31:23.914Z,94344.72
2018-08-19T11:33:52.067Z,94350.61
2018-08-19T11:36:20.342Z,94341.44
2018-08-19T11:38:48.739Z,94338.00
2018-08-19T11:41:16.507Z,94346.14
2018-08-19T11:43:45.185Z,94340.89
2018-08-19T11:46:12.975Z,94347.00
2018-08-19T11:48:41.178Z,94338.76
2018-08-19T11:51:08.861Z,94337.49
2018-08-19T11:53:36.506Z,94342.80
2018-08-19T11:56:04.238Z,94334.91
2018-08-19T11:58:37.470Z,94348.17
2018-08-19T12:01:12.655Z,94340.32
2018-08-19T12:03:57.123Z,94339.34
2018-08-19T12:06:27.138Z,94335.41
2018-08-19T12:08:56.000Z,94333.61
2018-08-19T12:14:04.234Z,94336.49
2018-08-19T12:16:35.473Z,94336.20
2018-08-19T12:19:08.566Z,94329.63
2018-08-19T12:21:42.751Z,94330.67
2018-08-19T12:24:16.814Z,94330.42
2018-08-19T12:26:44.385Z,94329.28
2018-08-19T12:29:12.215Z,94324.08
2018-08-19T12:31:39.793Z,94319.94
2018-08-19T12:34:07.355Z,94318.34
2018-08-19T12:36:34.911Z,94317.58
2018-08-19T12:39:03.072Z,94316.72
2018-08-19T12:41:31.723Z,94312.66
2018-08-19T12:43:59.315Z,94312.96
2018-08-19T12:46:27.005Z,94314.27
2018-08-19T12:48:54.748Z,94316.13
2018-08-19T12:51:22.391Z,94307.23
2018-08-19T12:53:49.939Z,94305.51
2018-08-19T12:56:17.506Z,94301.82
2018-08-19T12:58:45.059Z,94305.64
2018-08-19T13:01:12.611Z,94305.97
2018-08-19T13:03:40.223Z,94305.26
2018-08-19T13:06:08.435Z,94299.75
2018-08-19T13:08:36.710Z,94302.07
2018-08-19T13:11:05.125Z,94296.66
2018-08-19T13:13:33.086Z,94291.22
2018-08-19T13:16:00.691Z,94290.52
2018-08-19T13:18:33.966Z,94286.06
2018-08-19T13:21:07.593Z,94288.95
2018-08-19T13:23:35.134Z,94280.81
2018-08-19T13:26:02.753Z,94283.42
2018-08-19T13:28:30.498Z,94288.33
2018-08-19T13:30:58.006Z,94285.75
2018-08-19T13:33:25.954Z,94284.25
2018-08-19T13:35:53.599Z,94283.00
2018-08-19T13:38:30.664Z,94274.28
2018-08-19T13:40:58.564Z,94272.88
2018-08-19T13:43:26.116Z,94278.84
2018-08-19T13:45:53.995Z,94272.87
2018-08-19T13:48:21.768Z,94275.48
2018-08-19T13:50:49.324Z,94268.97
2018-08-19T13:53:16.911Z,94275.30
2018-08-19T13:55:44.498Z,94267.82
2018-08-19T13:58:12.030Z,94260.97
2018-08-19T14:00:39.601Z,94264.67
2018-08-19T14:03:07.413Z,94267.94
2018-08-19T14:05:34.989Z,94264.51
2018-08-19T14:08:02.614Z,94262.62
2018-08-19T14:10:30.169Z,94260.81
2018-08-19T14:12:57.734Z,94260.05
2018-08-19T14:15:25.311Z,94258.00
2018-08-19T14:17:53.487Z,94252.17
2018-08-19T14:20:21.092Z,94256.34
2018-08-19T14:22:48.929Z,94253.41
2018-08-19T14:25:16.475Z,94251.42
2018-08-19T14:27:44.138Z,94237.72
2018-08-19T14:30:12.141Z,94242.43
2018-08-19T14:32:40.162Z,94236.86
2018-08-19T14:35:08.053Z,94235.23
2018-08-19T14:37:35.614Z,94234.52
2018-08-19T14:40:03.944Z,94230.72
2018-08-19T14:42:31.526Z,94231.64
2018-08-19T14:44:59.498Z,94227.59
2018-08-19T14:47:27.511Z,94224.37
2018-08-19T14:49:55.861Z,94224.37
2018-08-19T14:52:23.484Z,94224.37
2018-08-19T14:54:51.065Z,94218.49
2018-08-19T14:57:18.639Z,94223.55
2018-08-19T14:59:46.227Z,94221.02
2018-08-19T15:02:14.080Z,94217.42
2018-08-19T15:04:42.208Z,94219.73
2018-08-19T15:07:10.336Z,94220.77
2018-08-19T15:09:38.931Z,94221.76
2018-08-19T15:12:12.914Z,94222.02
2018-08-19T15:14:40.520Z,94213.00
2018-08-19T15:17:08.958Z,94212.03
2018-08-19T15:19:45.873Z,94204.38
2018-08-19T15:22:13.427Z,94202.70
2018-08-19T15:24:41.005Z,94203.22
2018-08-19T15:27:08.555Z,94202.41
2018-08-19T15:29:39.714Z,94200.69
2018-08-19T15:32:07.521Z,94195.61
2018-08-19T15:34:35.040Z,94201.61
2018-08-19T15:37:02.628Z,94199.84
2018-08-19T15:39:30.482Z,94206.00
2018-08-19T15:41:58.042Z,94207.72
2018-08-19T15:44:25.614Z,94204.56
2018-08-19T15:46:53.373Z,94201.37
2018-08-19T15:49:21.545Z,94194.17
2018-08-19T15:51:49.122Z,94199.08
2018-08-19T15:54:16.989Z,94203.87
2018-08-19T15:56:44.570Z,94200.74
2018-08-19T15:59:12.119Z,94190.72
2018-08-19T16:01:40.076Z,94193.08
2018-08-19T16:04:28.111Z,94196.30
2018-08-19T16:06:55.731Z,94194.94
2018-08-19T16:09:24.609Z,94189.86
2018-08-19T16:11:53.019Z,94191.38
2018-08-19T16:14:22.279Z,94194.69
2018-08-19T16:16:50.015Z,94186.30
2018-08-19T16:19:17.582Z,94187.36
2018-08-19T16:21:46.329Z,94184.05
2018-08-19T16:24:13.906Z,94185.02
2018-08-19T16:26:41.522Z,94185.85
2018-08-19T16:29:09.127Z,94185.12
2018-08-19T16:31:36.734Z,94191.78
2018-08-19T16:34:04.512Z,94184.11
2018-08-19T16:36:32.065Z,94183.59
2018-08-19T16:38:59.722Z,94184.11
2018-08-19T16:41:27.833Z,94190.14
2018-08-19T16:43:55.575Z,94185.27
2018-08-19T16:46:23.259Z,94191.81
2018-08-19T16:48:50.950Z,94185.67
2018-08-19T16:51:18.620Z,94191.64
2018-08-19T16:53:46.490Z,94191.41
2018-08-19T16:56:14.092Z,94190.91
2018-08-19T16:58:41.876Z,94185.15
2018-08-19T17:01:09.729Z,94182.37
2018-08-19T17:03:38.085Z,94181.77
2018-08-19T17:06:07.226Z,94181.52
2018-08-19T17:08:34.843Z,94184.41
2018-08-19T17:11:02.436Z,94182.86
2018-08-19T17:13:30.043Z,94183.66
2018-08-19T17:15:58.396Z,94177.47
2018-08-19T17:18:25.938Z,94178.06
2018-08-19T17:20:53.535Z,94189.37
2018-08-19T17:23:22.319Z,94183.80
2018-08-19T17:25:50.320Z,94177.41
2018-08-19T17:28:21.800Z,94178.95
2018-08-19T17:30:50.570Z,94183.47
2018-08-19T17:33:19.224Z,94183.85
2018-08-19T17:35:48.032Z,94179.81
2018-08-19T17:38:16.841Z,94179.84
2018-08-19T17:40:44.431Z,94186.10
2018-08-19T17:43:11.948Z,94186.77
2018-08-19T17:45:39.600Z,94188.52
2018-08-19T17:48:07.371Z,94183.45
2018-08-19T17:50:36.627Z,94188.39
2018-08-19T17:53:04.261Z,94198.36
2018-08-19T17:55:31.879Z,94196.03
2018-08-19T17:57:59.825Z,94203.59
2018-08-19T18:00:27.938Z,94207.16
2018-08-19T18:02:55.491Z,94209.88
2018-08-19T18:05:23.104Z,94205.61
2018-08-19T18:07:52.758Z,94210.47
2018-08-19T18:10:20.345Z,94206.70
2018-08-19T18:12:48.291Z,94209.72
2018-08-19T18:15:15.909Z,94204.86
2018-08-19T18:17:56.568Z,94213.53
2018-08-19T18:20:24.907Z,94215.91
2018-08-19T18:22:53.764Z,94215.42
2018-08-19T18:25:21.401Z,94217.59
2018-08-19T18:27:48.998Z,94218.05
2018-08-19T18:30:23.418Z,94228.05
2018-08-19T18:32:51.314Z,94225.45
2018-08-19T18:35:19.801Z,94229.27
2018-08-19T18:37:47.426Z,94230.47
2018-08-19T18:40:22.456Z,94230.47
2018-08-19T18:42:50.444Z,94238.91
2018-08-19T18:45:18.023Z,94234.88
2018-08-19T18:47:51.570Z,94240.81
2018-08-19T18:50:21.800Z,94240.37
2018-08-19T18:52:49.373Z,94248.98
2018-08-19T18:55:17.027Z,94247.89
2018-08-19T18:57:55.683Z,94254.38
2018-08-19T19:00:24.772Z,94258.16
2018-08-19T19:02:57.536Z,94256.59
2018-08-19T19:05:30.954Z,94265.20
2018-08-19T19:08:08.261Z,94263.60
2018-08-19T19:10:36.586Z,94266.02
2018-08-19T19:13:04.943Z,94266.55
2018-08-19T19:15:37.068Z,94264.66
2018-08-19T19:18:06.317Z,94275.97
2018-08-19T19:20:33.949Z,94273.03
2018-08-19T19:23:02.462Z,94273.31
2018-08-19T19:25:37.851Z,94273.56
2018-08-19T19:28:05.873Z,94275.44
2018-08-19T19:30:33.656Z,94276.27
2018-08-19T19:33:09.633Z,94274.91
2018-08-19T19:35:37.475Z,94272.78
2018-08-19T19:38:05.731Z,94278.69
2018-08-19T19:40:33.388Z,94276.80
2018-08-19T19:43:01.258Z,94274.91
2018-08-19T19:45:30.080Z,94274.94
2018-08-19T19:47:57.721Z,94279.75
2018-08-19T19:50:25.315Z,94282.38
2018-08-19T19:52:57.877Z,94284.78
2018-08-19T19:55:26.028Z,94286.38
2018-08-19T19:57:53.790Z,94286.67
2018-08-19T20:00:21.338Z,94287.53
2018-08-19T20:02:48.928Z,94281.86
2018-08-19T20:05:23.107Z,94281.83
2018-08-19T20:07:51.917Z,94284.00
2018-08-19T20:10:25.823Z,94283.15
2018-08-19T20:12:53.506Z,94283.63
2018-08-19T20:15:21.073Z,94283.20
2018-08-19T20:17:48.682Z,94285.83
2018-08-19T20:20:16.227Z,94284.30
2018-08-19T20:22:44.061Z,94281.20
2018-08-19T20:25:12.606Z,94285.06
2018-08-19T20:27:40.230Z,94280.48
2018-08-19T20:30:07.816Z,94285.77
2018-08-19T20:32:35.362Z,94288.62
2018-08-19T20:35:03.270Z,94280.23
2018-08-19T20:37:35.671Z,94288.88
2018-08-19T20:40:03.792Z,94291.83
2018-08-19T20:42:31.328Z,94289.31
2018-08-19T20:44:58.859Z,94288.64
2018-08-19T20:47:26.446Z,94291.21
2018-08-19T20:49:54.002Z,94299.33
2018-08-19T20:52:54.746Z,94300.83
2018-08-19T20:55:22.322Z,94296.90
2018-08-19T20:57:49.883Z,94293.38
2018-08-19T21:00:17.490Z,94302.50
2018-08-19T21:02:45.035Z,94298.98
2018-08-19T21:05:12.598Z,94298.91
2018-08-19T21:07:41.588Z,94298.66
2018-08-19T21:10:09.122Z,94308.55
2018-08-19T21:12:36.663Z,94307.20
2018-08-19T21:15:04.328Z,94305.80
2018-08-19T21:17:32.223Z,94305.55
2018-08-19T21:19:59.894Z,94310.94
2018-08-19T21:22:27.512Z,94305.03
2018-08-19T21:24:55.055Z,94307.42
2018-08-19T21:27:23.194Z,94307.62
2018-08-19T21:29:50.830Z,94308.22
2018-08-19T21:32:18.573Z,94307.58
2018-08-19T21:34:46.184Z,94305.59
2018-08-19T21:37:15.578Z,94313.33
2018-08-19T21:39:43.126Z,94319.02
2018-08-19T21:42:10.679Z,94323.88
2018-08-19T21:44:38.222Z,94320.41
2018-08-19T21:47:05.794Z,94322.61
2018-08-19T21:49:33.382Z,94320.99
2018-08-19T21:52:00.991Z,94320.13
2018-08-19T21:54:28.534Z,94319.50
2018-08-19T21:56:56.078Z,94317.32
2018-08-19T21:59:24.354Z,94324.87
2018-08-19T22:01:59.658Z,94324.45
2018-08-19T22:04:27.879Z,94325.80
2018-08-19T22:06:55.492Z,94317.31
2018-08-19T22:09:28.674Z,94317.78
2018-08-19T22:11:57.526Z,94311.84
2018-08-19T22:14:25.416Z,94310.34
2018-08-19T22:16:58.679Z,94311.75
2018-08-19T22:19:26.326Z,94311.98
2018-08-19T22:21:53.839Z,94319.98
2018-08-19T22:24:21.402Z,94316.30
2018-08-19T22:26:48.949Z,94318.36
2018-08-19T22:29:19.437Z,94316.67
2018-08-19T22:31:48.470Z,94319.31
2018-08-19T22:34:16.026Z,94319.09
2018-08-19T22:36:43.580Z,94318.90
2018-08-19T22:39:11.427Z,94323.17
2018-08-19T22:41:38.967Z,94319.31
2018-08-19T22:44:06.497Z,94321.77
2018-08-19T22:46:34.175Z,94323.95
2018-08-19T22:49:01.694Z,94323.45
2018-08-19T22:51:29.814Z,94325.38
2018-08-19T22:53:57.380Z,94324.45
2018-08-19T22:56:24.904Z,94321.52
2018-08-19T22:58:52.465Z,94321.17
2018-08-19T23:01:20.164Z,94318.27
2018-08-19T23:03:48.512Z,94312.94
2018-08-19T23:06:16.086Z,94306.41
2018-08-19T23:08:43.619Z,94301.95
2018-08-19T23:11:11.154Z,94301.95
2018-08-19T23:13:44.269Z,94307.08
2018-08-19T23:16:12.622Z,94308.41
2018-08-19T23:18:40.961Z,94313.42
2018-08-19T23:21:08.823Z,94309.02
2018-08-19T23:23:36.398Z,94300.39
2018-08-19T23:26:04.355Z,94307.30
2018-08-19T23:28:31.878Z,94303.80
2018-08-19T23:30:59.460Z,94308.63
2018-08-19T23:33:26.995Z,94301.70
2018-08-19T23:35:54.538Z,94297.69
2018-08-19T23:38:22.120Z,94294.55
2018-08-19T23:40:49.690Z,94304.65
2018-08-19T23:43:17.563Z,94297.27
2018-08-19T23:45:45.143Z,94300.91
2018-08-19T23:48:12.678Z,94294.55
2018-08-19T23:50:40.302Z,94292.70
2018-08-19T23:53:09.226Z,94289.36
2018-08-19T23:55:37.334Z,94294.45
2018-08-19T23:58:04.853Z,94295.94
